Terminal Aerodrome Forecast
Issued by NWS Knoxville/Tri Cities, TN

Home | Current Version | Previous Version | Text Only | Print | Product List | Glossary On
Versions: 1 2 3 4 5 6 7 8 9 10 11 12 13 14
000
FTUS44 KMRX 260520
TAFTYS
TAF
KTYS 260520Z 2606/2706 23003KT P6SM SCT035
      TEMPO 2609/2613 BKN025
     FM261300 25005KT P6SM SKC
     FM270000 00000KT P6SM SKC=

USA.gov is the U.S. government's official web portal to all federal, state and local government web resources and services.